createdAt,value
2022-11-27T00:00:38.789Z,100.00
2022-11-27T00:03:05.389Z,100.00
2022-11-27T00:05:32.204Z,100.00
2022-11-27T00:07:58.830Z,100.00
2022-11-27T00:10:25.433Z,100.00
2022-11-27T00:12:51.918Z,100.00
2022-11-27T00:15:18.878Z,100.00
2022-11-27T00:17:45.333Z,100.00
2022-11-27T00:20:12.424Z,100.00
2022-11-27T00:22:38.912Z,100.00
2022-11-27T00:25:05.828Z,100.00
2022-11-27T00:27:32.366Z,100.00
2022-11-27T00:29:58.872Z,100.00
2022-11-27T00:32:25.345Z,100.00
2022-11-27T00:34:51.890Z,100.00
2022-11-27T00:37:18.420Z,100.00
2022-11-27T00:39:44.937Z,100.00
2022-11-27T00:42:11.483Z,100.00
2022-11-27T00:44:38.271Z,100.00
2022-11-27T00:47:05.193Z,100.00
2022-11-27T00:49:32.350Z,100.00
2022-11-27T00:51:59.078Z,100.00
2022-11-27T00:54:25.551Z,100.00
2022-11-27T00:56:52.062Z,100.00
2022-11-27T00:59:18.607Z,100.00
2022-11-27T01:01:45.218Z,100.00
2022-11-27T01:04:13.977Z,100.00
2022-11-27T01:06:40.971Z,100.00
2022-11-27T01:09:07.817Z,100.00
2022-11-27T01:11:34.849Z,100.00
2022-11-27T01:14:04.525Z,100.00
2022-11-27T01:16:31.748Z,100.00
2022-11-27T01:18:59.073Z,100.00
2022-11-27T01:21:26.610Z,100.00
2022-11-27T01:23:53.914Z,100.00
2022-11-27T01:26:20.496Z,100.00
2022-11-27T01:28:46.947Z,100.00
2022-11-27T01:31:15.486Z,100.00
2022-11-27T01:33:42.373Z,100.00
2022-11-27T01:36:10.048Z,100.00
2022-11-27T01:38:36.706Z,100.00
2022-11-27T01:41:06.547Z,100.00
2022-11-27T01:43:36.712Z,100.00
2022-11-27T01:46:03.260Z,100.00
2022-11-27T01:48:29.773Z,100.00
2022-11-27T01:50:56.532Z,100.00
2022-11-27T01:53:23.006Z,100.00
2022-11-27T01:55:52.166Z,100.00
2022-11-27T01:58:21.821Z,100.00
2022-11-27T02:00:48.289Z,100.00
2022-11-27T02:03:16.034Z,100.00
2022-11-27T02:05:42.637Z,100.00
2022-11-27T02:08:13.807Z,100.00
2022-11-27T02:10:49.417Z,100.00
2022-11-27T02:13:30.953Z,100.00
2022-11-27T02:16:13.735Z,100.00
2022-11-27T02:19:01.758Z,100.00
2022-11-27T02:21:39.406Z,100.00
2022-11-27T02:24:34.689Z,100.00
2022-11-27T02:27:01.032Z,100.00
2022-11-27T02:29:29.656Z,100.00
2022-11-27T02:31:58.949Z,100.00
2022-11-27T02:34:34.930Z,100.00
2022-11-27T02:37:15.052Z,100.00
2022-11-27T02:39:50.174Z,100.00
2022-11-27T02:42:20.392Z,100.00
2022-11-27T02:44:49.180Z,100.00
2022-11-27T02:47:16.135Z,100.00
2022-11-27T02:49:42.857Z,100.00
2022-11-27T02:52:09.329Z,100.00
2022-11-27T02:54:35.863Z,100.00
2022-11-27T02:57:03.692Z,100.00
2022-11-27T02:59:31.224Z,100.00
2022-11-27T03:02:00.859Z,100.00
2022-11-27T03:04:32.319Z,100.00
2022-11-27T03:06:59.550Z,100.00
2022-11-27T03:09:36.644Z,100.00
2022-11-27T03:12:04.251Z,100.00
2022-11-27T03:14:30.713Z,100.00
2022-11-27T03:17:02.520Z,100.00
2022-11-27T03:19:46.240Z,100.00
2022-11-27T03:22:12.776Z,100.00
2022-11-27T03:24:39.692Z,100.00
2022-11-27T03:27:06.433Z,100.00
2022-11-27T03:29:37.172Z,100.00
2022-11-27T03:32:03.823Z,100.00
2022-11-27T03:34:30.285Z,100.00
2022-11-27T03:36:56.753Z,100.00
2022-11-27T03:39:23.214Z,100.00
2022-11-27T03:42:34.318Z,100.00
2022-11-27T03:45:25.192Z,100.00
2022-11-27T03:48:44.239Z,100.00
2022-11-27T03:51:28.927Z,100.00
2022-11-27T03:54:34.371Z,100.00
2022-11-27T03:57:14.521Z,100.00
2022-11-27T03:59:42.253Z,100.00
2022-11-27T04:02:15.194Z,100.00
2022-11-27T04:04:41.979Z,100.00
2022-11-27T04:07:13.810Z,100.00
2022-11-27T04:09:40.295Z,100.00
2022-11-27T04:12:07.215Z,100.00
2022-11-27T04:14:33.935Z,100.00
2022-11-27T04:17:00.413Z,100.00
2022-11-27T04:19:26.869Z,100.00
2022-11-27T04:21:53.356Z,100.00
2022-11-27T04:24:19.964Z,100.00
2022-11-27T04:26:46.427Z,100.00
2022-11-27T04:29:12.906Z,100.00
2022-11-27T04:31:39.849Z,100.00
2022-11-27T04:34:06.379Z,100.00
2022-11-27T04:36:38.818Z,100.00
2022-11-27T04:39:05.826Z,100.00
2022-11-27T04:41:32.323Z,100.00
2022-11-27T04:43:58.789Z,100.00
2022-11-27T04:46:25.269Z,100.00
2022-11-27T04:48:51.764Z,100.00
2022-11-27T04:51:18.235Z,100.00
2022-11-27T04:53:44.699Z,100.00
2022-11-27T04:56:11.147Z,100.00
2022-11-27T04:58:37.909Z,100.00
2022-11-27T05:01:04.398Z,100.00
2022-11-27T05:03:30.905Z,100.00
2022-11-27T05:05:57.523Z,100.00
2022-11-27T05:08:24.806Z,100.00
2022-11-27T05:11:04.878Z,100.00
2022-11-27T05:13:31.402Z,100.00
2022-11-27T05:15:57.909Z,100.00
2022-11-27T05:18:24.465Z,100.00
2022-11-27T05:21:05.182Z,100.00
2022-11-27T05:23:31.959Z,100.00
2022-11-27T05:25:58.450Z,100.00
2022-11-27T05:28:26.859Z,100.00
2022-11-27T05:30:54.091Z,100.00
2022-11-27T05:33:20.717Z,100.00
2022-11-27T05:35:47.173Z,100.00
2022-11-27T05:38:13.666Z,100.00
2022-11-27T05:40:40.118Z,100.00
2022-11-27T05:43:07.044Z,100.00
2022-11-27T05:45:33.506Z,100.00
2022-11-27T05:48:00.019Z,100.00
2022-11-27T05:50:26.497Z,100.00
2022-11-27T05:52:52.979Z,100.00
2022-11-27T05:55:19.470Z,100.00
2022-11-27T05:57:45.961Z,100.00
2022-11-27T06:00:12.968Z,100.00
2022-11-27T06:02:39.555Z,100.00
2022-11-27T06:05:06.876Z,100.00
2022-11-27T06:07:33.392Z,100.00
2022-11-27T06:09:59.908Z,100.00
2022-11-27T06:12:26.594Z,100.00
2022-11-27T06:14:53.037Z,100.00
2022-11-27T06:17:19.508Z,100.00
2022-11-27T06:19:46.071Z,100.00
2022-11-27T06:22:12.533Z,100.00
2022-11-27T06:24:39.319Z,100.00
2022-11-27T06:27:06.073Z,100.00
2022-11-27T06:29:32.538Z,100.00
2022-11-27T06:31:59.061Z,100.00
2022-11-27T06:34:25.566Z,100.00
2022-11-27T06:36:52.381Z,100.00
2022-11-27T06:39:19.122Z,100.00
2022-11-27T06:41:45.573Z,100.00
2022-11-27T06:44:12.047Z,100.00
2022-11-27T06:46:38.840Z,100.00
2022-11-27T06:49:05.358Z,100.00
2022-11-27T06:51:32.175Z,100.00
2022-11-27T06:54:01.892Z,100.00
2022-11-27T06:56:29.511Z,100.00
2022-11-27T06:58:57.639Z,100.00
2022-11-27T07:01:25.325Z,100.00
2022-11-27T07:03:51.868Z,100.00
2022-11-27T07:06:20.210Z,100.00
2022-11-27T07:08:46.820Z,100.00
2022-11-27T07:11:18.460Z,100.00
2022-11-27T07:13:48.556Z,100.00
2022-11-27T07:16:15.477Z,100.00
2022-11-27T07:18:43.567Z,100.00
2022-11-27T07:21:10.230Z,100.00
2022-11-27T07:23:36.820Z,100.00
2022-11-27T07:26:17.113Z,100.00
2022-11-27T07:28:46.385Z,100.00
2022-11-27T07:31:14.236Z,100.00
2022-11-27T07:33:40.796Z,100.00
2022-11-27T07:36:10.799Z,100.00
2022-11-27T07:38:37.276Z,100.00
2022-11-27T07:41:04.087Z,100.00
2022-11-27T07:43:31.241Z,100.00
2022-11-27T07:45:57.769Z,100.00
2022-11-27T07:48:24.303Z,100.00
2022-11-27T07:50:50.811Z,100.00
2022-11-27T07:53:17.316Z,100.00
2022-11-27T07:55:43.798Z,100.00
2022-11-27T07:58:10.291Z,100.00
2022-11-27T08:00:37.512Z,100.00
2022-11-27T08:03:04.053Z,100.00
2022-11-27T08:05:30.513Z,100.00
2022-11-27T08:07:59.993Z,100.00
2022-11-27T08:10:26.578Z,100.00
2022-11-27T08:12:53.086Z,100.00
2022-11-27T08:15:19.541Z,100.00
2022-11-27T08:17:46.002Z,100.00
2022-11-27T08:20:12.588Z,100.00
2022-11-27T08:22:39.081Z,100.00
2022-11-27T08:25:05.905Z,100.00
2022-11-27T08:27:33.267Z,100.00
2022-11-27T08:30:00.226Z,100.00
2022-11-27T08:32:26.685Z,100.00
2022-11-27T08:34:53.176Z,100.00
2022-11-27T08:37:19.644Z,100.00
2022-11-27T08:39:46.247Z,100.00
2022-11-27T08:42:12.749Z,100.00
2022-11-27T08:44:39.495Z,100.00
2022-11-27T08:47:06.211Z,100.00
2022-11-27T08:49:32.666Z,100.00
2022-11-27T08:51:59.126Z,100.00
2022-11-27T08:54:25.641Z,100.00
2022-11-27T08:56:52.610Z,100.00
2022-11-27T08:59:19.300Z,100.00
2022-11-27T09:01:45.765Z,100.00
2022-11-27T09:04:12.269Z,100.00
2022-11-27T09:06:40.722Z,100.00
2022-11-27T09:09:07.278Z,100.00
2022-11-27T09:11:33.967Z,100.00
2022-11-27T09:14:00.883Z,100.00
2022-11-27T09:16:28.131Z,100.00
2022-11-27T09:18:54.821Z,100.00
2022-11-27T09:21:22.180Z,100.00
2022-11-27T09:23:48.979Z,100.00
2022-11-27T09:26:16.256Z,100.00
2022-11-27T09:28:43.171Z,100.00
2022-11-27T09:31:10.890Z,100.00
2022-11-27T09:33:38.355Z,100.00
2022-11-27T09:36:09.369Z,100.00
2022-11-27T09:38:36.339Z,100.00
2022-11-27T09:41:11.392Z,100.00
2022-11-27T09:43:49.272Z,100.00
2022-11-27T09:46:24.104Z,100.00
2022-11-27T09:48:50.661Z,100.00
2022-11-27T09:51:42.819Z,100.00
2022-11-27T09:54:30.800Z,100.00
2022-11-27T09:56:57.370Z,100.00
2022-11-27T09:59:39.590Z,100.00
2022-11-27T10:02:21.776Z,100.00
2022-11-27T10:05:12.094Z,100.00
2022-11-27T10:07:47.107Z,100.00
2022-11-27T10:10:32.054Z,100.00
2022-11-27T10:13:13.595Z,100.00
2022-11-27T10:15:56.105Z,100.00
2022-11-27T10:18:35.611Z,100.00
2022-11-27T10:21:34.348Z,100.00
2022-11-27T10:24:11.272Z,100.00
2022-11-27T10:26:41.764Z,100.00
2022-11-27T10:29:26.616Z,100.00
2022-11-27T10:32:00.233Z,100.00
2022-11-27T10:34:43.550Z,100.00
2022-11-27T10:37:32.406Z,100.00
2022-11-27T10:40:01.898Z,100.00
2022-11-27T10:42:34.921Z,100.00
2022-11-27T10:45:22.856Z,100.00
2022-11-27T10:47:49.459Z,100.00
2022-11-27T10:50:17.638Z,100.00
2022-11-27T10:52:55.416Z,100.00
2022-11-27T10:55:34.599Z,100.00
2022-11-27T10:58:03.452Z,100.00
2022-11-27T11:00:29.990Z,100.00
2022-11-27T11:03:04.815Z,100.00
2022-11-27T11:05:45.104Z,100.00
2022-11-27T11:08:19.302Z,100.00
2022-11-27T11:11:12.270Z,100.00
2022-11-27T11:13:41.810Z,100.00
2022-11-27T11:16:14.675Z,100.00
2022-11-27T11:18:46.325Z,100.00
2022-11-27T11:21:15.690Z,100.00
2022-11-27T11:23:42.310Z,100.00
2022-11-27T11:26:23.259Z,100.00
2022-11-27T11:28:57.697Z,100.00
2022-11-27T11:31:32.959Z,100.00
2022-11-27T11:34:04.077Z,100.00
2022-11-27T11:36:30.569Z,100.00
2022-11-27T11:38:57.022Z,100.00
2022-11-27T11:41:24.469Z,100.00
2022-11-27T11:43:56.446Z,100.00
2022-11-27T11:46:25.262Z,100.00
2022-11-27T11:49:15.892Z,100.00
2022-11-27T11:51:51.725Z,100.00
2022-11-27T11:54:28.378Z,100.00
2022-11-27T11:56:54.877Z,100.00
2022-11-27T11:59:25.242Z,100.00
2022-11-27T12:01:54.309Z,99.95
2022-11-27T12:04:56.892Z,98.47
2022-11-27T12:07:52.388Z,98.30
2022-11-27T12:10:29.061Z,96.52
2022-11-27T12:13:06.623Z,95.46
2022-11-27T12:15:46.618Z,96.77
2022-11-27T12:18:25.513Z,96.47
2022-11-27T12:21:10.965Z,95.86
2022-11-27T12:23:37.318Z,94.83
2022-11-27T12:26:13.255Z,94.72
2022-11-27T12:29:07.494Z,94.80
2022-11-27T12:32:11.672Z,94.53
2022-11-27T12:34:48.332Z,94.76
2022-11-27T12:37:29.797Z,94.99
2022-11-27T12:40:17.971Z,94.39
2022-11-27T12:42:48.822Z,94.53
2022-11-27T12:45:22.352Z,94.82
2022-11-27T12:47:55.583Z,95.90
2022-11-27T12:50:30.851Z,95.06
2022-11-27T12:53:11.719Z,95.18
2022-11-27T12:55:38.696Z,95.02
2022-11-27T12:58:07.002Z,96.29
2022-11-27T13:00:35.950Z,95.33
2022-11-27T13:03:06.730Z,94.71
2022-11-27T13:05:56.680Z,94.90
2022-11-27T13:09:18.509Z,94.50
2022-11-27T13:11:45.034Z,92.96
2022-11-27T13:14:18.213Z,93.82
2022-11-27T13:16:47.274Z,93.25
2022-11-27T13:19:24.382Z,91.68
2022-11-27T13:21:50.960Z,91.48
2022-11-27T13:24:17.550Z,91.31
2022-11-27T13:27:06.519Z,91.85
2022-11-27T13:29:39.566Z,91.53
2022-11-27T13:32:06.453Z,91.58
2022-11-27T13:34:33.409Z,91.10
2022-11-27T13:37:04.618Z,91.43
2022-11-27T13:39:38.959Z,91.44
2022-11-27T13:42:13.794Z,90.81
2022-11-27T13:44:42.714Z,91.67
2022-11-27T13:47:19.343Z,89.51
2022-11-27T13:49:47.955Z,90.85
2022-11-27T13:52:15.968Z,90.17
2022-11-27T13:55:01.975Z,90.55
2022-11-27T13:57:29.563Z,90.11
2022-11-27T14:00:10.939Z,89.84
2022-11-27T14:02:47.146Z,89.15
2022-11-27T14:05:18.052Z,89.54
2022-11-27T14:07:49.288Z,89.05
2022-11-27T14:10:19.174Z,88.35
2022-11-27T14:12:54.099Z,88.75
2022-11-27T14:15:23.344Z,88.68
2022-11-27T14:17:50.922Z,89.60
2022-11-27T14:20:17.459Z,88.92
2022-11-27T14:23:09.977Z,90.46
2022-11-27T14:25:33.749Z,90.55
2022-11-27T14:28:25.923Z,89.55
2022-11-27T14:30:53.846Z,89.44
2022-11-27T14:33:31.420Z,88.28
2022-11-27T14:36:04.085Z,87.81
2022-11-27T14:38:32.137Z,89.09
2022-11-27T14:41:15.307Z,89.98
2022-11-27T14:43:41.775Z,90.02
2022-11-27T14:46:17.381Z,90.74
2022-11-27T14:48:57.451Z,88.42
2022-11-27T14:51:26.334Z,88.06
2022-11-27T14:53:57.097Z,87.57
2022-11-27T14:56:23.561Z,88.24
2022-11-27T14:58:53.942Z,88.27
2022-11-27T15:01:27.477Z,88.70
2022-11-27T15:04:01.382Z,88.15
2022-11-27T15:06:44.638Z,88.30
2022-11-27T15:09:31.819Z,87.58
2022-11-27T15:12:26.145Z,86.95
2022-11-27T15:15:00.090Z,87.63
2022-11-27T15:17:28.612Z,86.68
2022-11-27T15:19:55.502Z,86.71
2022-11-27T15:22:21.966Z,86.38
2022-11-27T15:24:58.584Z,85.37
2022-11-27T15:27:25.096Z,86.05
2022-11-27T15:29:54.615Z,87.03
2022-11-27T15:32:23.981Z,86.07
2022-11-27T15:34:51.084Z,85.80
2022-11-27T15:37:30.754Z,86.36
2022-11-27T15:39:58.229Z,85.35
2022-11-27T15:42:26.019Z,86.50
2022-11-27T15:44:54.268Z,86.56
2022-11-27T15:47:31.035Z,87.51
2022-11-27T15:49:57.948Z,87.63
2022-11-27T15:52:24.463Z,84.46
2022-11-27T15:54:51.113Z,86.28
2022-11-27T15:57:17.646Z,86.26
2022-11-27T15:59:44.103Z,87.14
2022-11-27T16:02:16.074Z,85.73
2022-11-27T16:04:44.111Z,86.91
2022-11-27T16:07:10.671Z,86.51
2022-11-27T16:09:39.523Z,87.06
2022-11-27T16:12:06.102Z,88.39
2022-11-27T16:14:32.602Z,87.53
2022-11-27T16:17:00.507Z,86.61
2022-11-27T16:19:27.187Z,85.82
2022-11-27T16:21:53.669Z,85.50
2022-11-27T16:24:20.168Z,85.81
2022-11-27T16:26:46.955Z,87.12
2022-11-27T16:29:13.488Z,87.54
2022-11-27T16:31:40.107Z,86.71
2022-11-27T16:34:06.722Z,87.77
2022-11-27T16:36:33.232Z,87.25
2022-11-27T16:38:59.741Z,87.42
2022-11-27T16:41:26.327Z,84.77
2022-11-27T16:43:54.978Z,84.58
2022-11-27T16:46:26.306Z,84.22
2022-11-27T16:48:53.685Z,83.85
2022-11-27T16:51:25.191Z,83.05
2022-11-27T16:53:53.360Z,82.43
2022-11-27T16:56:22.644Z,83.68
2022-11-27T16:58:49.234Z,84.62
2022-11-27T17:01:17.904Z,83.17
2022-11-27T17:03:45.047Z,84.55
2022-11-27T17:06:13.390Z,85.63
2022-11-27T17:08:39.842Z,85.36
2022-11-27T17:11:13.710Z,83.71
2022-11-27T17:13:40.472Z,84.45
2022-11-27T17:16:08.599Z,84.14
2022-11-27T17:18:39.027Z,84.57
2022-11-27T17:21:07.037Z,86.24
2022-11-27T17:23:33.635Z,86.67
2022-11-27T17:26:07.084Z,87.53
2022-11-27T17:28:33.565Z,87.78
2022-11-27T17:31:00.004Z,88.78
2022-11-27T17:33:26.518Z,87.85
2022-11-27T17:35:52.970Z,85.86
2022-11-27T17:38:19.433Z,86.01
2022-11-27T17:40:45.893Z,86.79
2022-11-27T17:43:12.416Z,85.82
2022-11-27T17:45:42.029Z,86.46
2022-11-27T17:48:08.542Z,87.38
2022-11-27T17:50:35.033Z,86.41
2022-11-27T17:53:03.417Z,84.88
2022-11-27T17:55:30.005Z,84.58
2022-11-27T17:57:56.621Z,83.77
2022-11-27T18:00:23.208Z,84.84
2022-11-27T18:02:50.189Z,83.70
2022-11-27T18:05:16.892Z,83.53
2022-11-27T18:07:44.284Z,83.95
2022-11-27T18:10:12.477Z,85.04
2022-11-27T18:12:39.178Z,84.93
2022-11-27T18:15:06.188Z,83.81
2022-11-27T18:17:33.004Z,84.64
2022-11-27T18:20:00.648Z,84.64
2022-11-27T18:22:27.296Z,85.88
2022-11-27T18:24:53.780Z,84.92
2022-11-27T18:27:20.367Z,83.49
2022-11-27T18:29:47.209Z,84.05
2022-11-27T18:32:14.545Z,83.66
2022-11-27T18:34:41.366Z,83.54
2022-11-27T18:37:08.201Z,83.18
2022-11-27T18:39:36.007Z,84.06
2022-11-27T18:42:03.444Z,84.56
2022-11-27T18:44:30.064Z,84.96
2022-11-27T18:46:56.704Z,83.75
2022-11-27T18:49:23.692Z,84.67
2022-11-27T18:51:53.913Z,83.82
2022-11-27T18:54:21.149Z,84.58
2022-11-27T18:56:48.192Z,83.86
2022-11-27T18:59:14.871Z,84.30
2022-11-27T19:01:42.758Z,83.78
2022-11-27T19:04:10.412Z,83.99
2022-11-27T19:06:37.324Z,84.77
2022-11-27T19:09:03.972Z,85.31
2022-11-27T19:11:30.911Z,84.67
2022-11-27T19:13:57.667Z,84.73
2022-11-27T19:16:29.012Z,85.42
2022-11-27T19:18:59.004Z,85.24
2022-11-27T19:21:26.878Z,85.39
2022-11-27T19:23:53.466Z,84.78
2022-11-27T19:26:21.685Z,85.61
2022-11-27T19:28:48.874Z,85.22
2022-11-27T19:31:16.390Z,85.72
2022-11-27T19:33:43.114Z,86.00
2022-11-27T19:36:12.822Z,85.65
2022-11-27T19:38:40.725Z,85.98
2022-11-27T19:41:11.393Z,85.85
2022-11-27T19:43:37.912Z,86.25
2022-11-27T19:46:19.405Z,86.74
2022-11-27T19:48:45.924Z,86.94
2022-11-27T19:51:13.041Z,86.67
2022-11-27T19:53:39.572Z,86.76
2022-11-27T19:56:06.435Z,86.81
2022-11-27T19:58:32.913Z,87.74
2022-11-27T20:01:16.079Z,87.87
2022-11-27T20:03:42.831Z,87.69
2022-11-27T20:06:17.094Z,87.62
2022-11-27T20:08:44.066Z,87.79
2022-11-27T20:11:11.837Z,87.24
2022-11-27T20:13:38.442Z,87.56
2022-11-27T20:16:15.172Z,87.32
2022-11-27T20:18:41.800Z,87.38
2022-11-27T20:21:09.446Z,87.46
2022-11-27T20:23:35.974Z,87.92
2022-11-27T20:26:06.562Z,87.74
2022-11-27T20:28:33.257Z,88.04
2022-11-27T20:31:01.050Z,87.71
2022-11-27T20:33:27.839Z,87.45
2022-11-27T20:35:55.055Z,87.21
2022-11-27T20:38:21.881Z,87.51
2022-11-27T20:40:48.774Z,87.82
2022-11-27T20:43:15.474Z,87.91
2022-11-27T20:45:42.125Z,87.98
2022-11-27T20:48:08.933Z,87.71
2022-11-27T20:50:36.289Z,88.75
2022-11-27T20:53:02.755Z,88.22
2022-11-27T20:55:29.231Z,88.67
2022-11-27T20:57:55.767Z,88.32
2022-11-27T21:00:22.639Z,89.74
2022-11-27T21:02:49.182Z,90.04
2022-11-27T21:05:15.998Z,90.85
2022-11-27T21:07:42.833Z,91.25
2022-11-27T21:10:11.403Z,91.58
2022-11-27T21:12:38.092Z,92.76
2022-11-27T21:15:05.175Z,93.54
2022-11-27T21:17:31.733Z,93.90
2022-11-27T21:20:01.305Z,93.85
2022-11-27T21:22:28.373Z,95.24
2022-11-27T21:24:54.908Z,95.23
2022-11-27T21:27:21.388Z,95.10
2022-11-27T21:29:47.842Z,96.36
2022-11-27T21:32:14.713Z,96.07
2022-11-27T21:34:41.332Z,95.43
2022-11-27T21:37:08.029Z,94.46
2022-11-27T21:39:34.558Z,93.99
2022-11-27T21:42:01.017Z,93.81
2022-11-27T21:44:27.825Z,93.55
2022-11-27T21:46:54.388Z,93.68
2022-11-27T21:49:20.906Z,94.21
2022-11-27T21:51:51.033Z,92.91
2022-11-27T21:54:18.737Z,93.62
2022-11-27T21:56:45.201Z,93.82
2022-11-27T21:59:14.824Z,92.44
2022-11-27T22:01:41.388Z,92.67
2022-11-27T22:04:07.947Z,93.04
2022-11-27T22:06:38.885Z,93.46
2022-11-27T22:09:07.389Z,93.29
2022-11-27T22:11:35.746Z,94.94
2022-11-27T22:14:04.199Z,95.31
2022-11-27T22:16:32.255Z,95.27
2022-11-27T22:18:59.068Z,98.03
2022-11-27T22:21:27.196Z,100.00
2022-11-27T22:23:53.796Z,100.00
2022-11-27T22:26:21.089Z,100.00
2022-11-27T22:28:47.873Z,100.00
2022-11-27T22:31:20.200Z,100.00
2022-11-27T22:33:46.763Z,100.00
2022-11-27T22:36:24.520Z,100.00
2022-11-27T22:38:52.287Z,100.00
2022-11-27T22:41:19.791Z,100.00
2022-11-27T22:43:46.315Z,100.00
2022-11-27T22:46:29.523Z,100.00
2022-11-27T22:48:58.032Z,100.00
2022-11-27T22:51:25.545Z,100.00
2022-11-27T22:53:52.453Z,100.00
2022-11-27T22:56:18.918Z,100.00
2022-11-27T22:58:45.661Z,99.24
2022-11-27T23:01:17.284Z,97.35
2022-11-27T23:03:43.788Z,95.79
2022-11-27T23:06:12.143Z,95.09
2022-11-27T23:08:42.842Z,95.15
2022-11-27T23:11:10.412Z,94.04
2022-11-27T23:13:36.990Z,93.89
2022-11-27T23:16:04.584Z,93.59
2022-11-27T23:18:31.461Z,93.24
2022-11-27T23:20:57.928Z,92.81
2022-11-27T23:23:24.390Z,93.71
2022-11-27T23:25:50.860Z,93.91
2022-11-27T23:28:17.335Z,93.35
2022-11-27T23:30:43.791Z,93.03
2022-11-27T23:33:10.249Z,93.63
2022-11-27T23:35:36.708Z,93.41
2022-11-27T23:38:03.488Z,92.56
2022-11-27T23:40:29.970Z,90.91
2022-11-27T23:42:56.449Z,91.21
2022-11-27T23:45:23.062Z,90.87
2022-11-27T23:47:50.420Z,90.71
2022-11-27T23:50:17.191Z,89.34
2022-11-27T23:52:43.697Z,88.79
2022-11-27T23:55:10.154Z,89.08
2022-11-27T23:57:36.626Z,88.67
